Latest Weather Observations for Low Isles

IDQ60801

Issued at 11:32 am EST Monday 8 February 2016 (issued every 30 minutes, with the page automatically refreshed every 10 minutes)

About weather observations | Map of weather stations | Latest weather observations for QLD | Other Formats
Station Details ID: 031037 Name: LOW ISLES LIGHTHOUSE Lat: -16.38 Lon: 145.56 Height: 2.9 m
Data from the previous 72 hours. | See also: Recent months at Low Isles
Date/Time
EST
Temp
°C
App
Temp
°C
Dew
Point
Rel
Hum
%
Delta-T
°C
Wind Press
QNH
hPa
Press
MSL
hPa
Rain
since 9 am
mm
Dir
 
Spd
km/h
Gust
km/h
Spd
kts
Gust
kts
08/11:30am 32.8 37.3 27.5 73 3.9 SE 19 22 10 12 1008.7 - 0.0
08/11:00am 33.0 38.5 26.8 70 4.5 SE 11 15 6 8 1009.1 - 0.0
08/10:30am 31.6 36.5 25.9 72 4.1 ESE 11 15 6 8 1009.3 - 0.0
08/10:00am 30.2 34.8 25.9 78 3.1 ESE 13 17 7 9 1009.2 - 0.0
08/09:30am 30.0 35.2 26.8 83 2.3 S 13 20 7 11 1009.3 - 0.0
08/09:00am 30.4 35.9 26.1 78 3.1 S 9 9 5 5 1009.3 1009.2 0.0
08/08:30am 29.8 35.4 25.8 79 2.8 SSW 7 9 4 5 1009.2 - 0.0
08/08:00am 30.0 36.1 27.0 84 2.2 W 9 13 5 7 1008.9 - 0.0
08/07:30am 29.4 34.3 25.8 81 2.6 W 11 13 6 7 1008.7 - 0.0
08/07:00am 29.1 34.2 25.5 81 2.5 W 9 11 5 6 1008.0 - 0.0
08/06:30am 29.4 34.0 26.0 82 2.4 W 13 15 7 8 1007.7 - 0.0
08/06:00am 29.5 34.8 26.5 84 2.1 WSW 11 11 6 6 1007.2 1007.1 0.0
08/05:30am 28.8 34.2 26.0 85 2.0 W 9 11 5 6 1006.8 - 0.0
08/05:00am 29.3 35.7 26.9 87 1.7 SSW 7 9 4 5 1006.7 - 0.0
08/04:30am 28.9 36.1 26.1 85 2.0 CALM 0 0 0 0 1006.7 - 0.0
08/04:00am 29.0 34.8 26.0 84 2.1 SSE 7 9 4 5 1006.8 - 0.0
08/03:30am 29.1 34.2 26.1 84 2.1 S 11 13 6 7 1006.8 - 0.0
08/03:00am 28.9 33.5 25.9 84 2.1 SSW 13 17 7 9 1006.9 1006.8 0.0
08/02:30am 29.2 34.2 26.6 86 1.9 SW 13 15 7 8 1007.2 - 0.0
08/02:00am 29.2 34.2 26.6 86 1.9 WSW 13 15 7 8 1007.3 - 0.0
08/01:30am 29.5 35.0 26.7 85 2.0 WSW 11 13 6 7 1007.5 - 0.0
08/01:00am 29.7 35.7 26.9 85 2.0 SW 9 11 5 6 1007.7 - 0.0
08/12:30am 29.6 35.7 27.0 86 1.9 SW 9 11 5 6 1007.9 - 0.0
08/12:00am 29.9 36.5 27.7 88 1.6 SW 9 11 5 6 1007.9 1007.8 0.0
 
Date/Time
EST
Temp
°C
App
Temp
°C
Dew
Point
Rel
Hum
%
Delta-T
°C
Wind Press
QNH
hPa
Press
MSL
hPa
Rain
since 9 am
mm
Dir
 
Spd
km/h
Gust
km/h
Spd
kts
Gust
kts
07/11:30pm 30.0 37.7 27.4 86 1.9 N 2 6 1 3 1008.0 - 0.0
07/11:00pm 30.1 37.2 27.7 87 1.7 N 6 7 3 4 1008.1 - 0.0
07/10:30pm 30.0 36.6 27.8 88 1.6 N 9 11 5 6 1008.3 - 0.0
07/10:00pm 30.0 36.9 27.6 87 1.7 N 7 9 4 5 1008.1 - 0.0
07/09:30pm 30.0 37.7 27.4 86 1.9 NNE 2 9 1 5 1008.1 - 0.0
07/09:00pm 30.1 37.8 26.9 83 2.3 CALM 0 0 0 0 1007.9 1007.8 0.0
07/08:30pm 30.1 37.0 26.9 83 2.3 NNE 4 7 2 4 1007.2 - 0.0
07/08:00pm 30.4 36.6 27.2 83 2.3 N 9 11 5 6 1007.0 - 0.0
07/07:30pm 30.8 37.4 27.2 81 2.6 NNE 7 11 4 6 1006.6 - 0.0
07/07:00pm 31.2 37.2 26.9 78 3.1 NNE 9 11 5 6 1006.3 - 0.0
07/06:30pm 31.9 37.5 26.9 75 3.6 NNE 11 13 6 7 1006.0 - 0.0
07/06:00pm 32.6 38.2 26.9 72 4.1 NE 11 13 6 7 1005.7 1005.6 0.0
07/05:30pm 33.2 38.3 26.7 68 4.7 ENE 13 15 7 8 1005.0 - 0.0
07/05:00pm 33.8 38.0 26.5 65 5.3 NE 17 19 9 10 1004.7 - 0.0
07/04:30pm 35.3 40.9 27.4 63 5.8 NE 13 13 7 7 1004.1 - 0.0
07/04:00pm 35.4 42.0 27.3 63 5.9 NE 7 11 4 6 1004.1 - 0.0
07/03:30pm 36.0 41.9 27.3 61 6.3 NNE 11 13 6 7 1003.9 - 0.0
07/03:00pm 35.0 38.7 27.2 64 5.7 N 22 24 12 13 1004.1 1004.0 0.0
07/02:30pm 35.8 39.8 27.1 61 6.3 NNE 20 22 11 12 1004.2 - 0.0
07/02:00pm 36.9 40.7 27.3 58 7.0 NNE 22 24 12 13 1004.6 - 0.0
07/01:30pm 35.6 39.3 27.7 63 5.8 NE 24 26 13 14 1005.0 - 0.0
07/01:00pm 35.6 39.7 27.2 62 6.1 NE 20 22 11 12 1005.4 - 0.0
07/12:30pm 36.3 40.1 26.4 56 7.2 NE 19 20 10 11 1005.9 - 0.0
07/12:00pm 36.4 40.6 25.9 54 7.6 NNE 15 17 8 9 1006.2 1006.1 0.0
07/11:30am 35.5 40.3 25.7 57 7.0 NNE 11 13 6 7 1006.3 - 0.0
07/11:00am 33.7 40.0 26.5 66 5.2 NNW 6 7 3 4 1006.5 - 0.0
07/10:30am 31.2 37.0 26.0 74 3.7 W 7 7 4 4 1006.6 - 0.0
07/10:00am 30.0 34.6 25.3 76 3.3 W 11 13 6 7 1006.7 - 0.0
07/09:30am 29.8 34.3 25.8 79 2.8 W 13 13 7 7 1006.7 - 0.0
07/09:00am 29.4 34.4 26.0 82 2.4 W 11 13 6 7 1006.7 1006.6 0.0
07/08:30am 29.0 33.2 25.4 81 2.5 W 13 15 7 8 1006.6 - 0.0
07/08:00am 28.8 33.3 25.8 84 2.1 W 13 15 7 8 1006.5 - 0.0
07/07:30am 28.9 32.9 25.1 80 2.7 W 13 15 7 8 1006.4 - 0.0
07/07:00am 28.8 32.9 25.8 84 2.1 W 15 17 8 9 1006.1 - 0.0
07/06:30am 28.6 31.5 25.4 83 2.3 WNW 20 24 11 13 1005.7 - 0.0
07/06:00am 28.4 32.1 25.2 83 2.3 WNW 15 17 8 9 1005.2 1005.1 0.0
07/05:30am 28.5 31.8 25.7 85 2.0 W 19 20 10 11 1004.6 - 0.0
07/05:00am 28.9 32.7 25.3 81 2.5 W 15 19 8 10 1004.1 - 0.0
07/04:30am 28.8 33.2 25.6 83 2.3 W 13 15 7 8 1003.9 - 0.0
07/04:00am 29.2 32.7 26.0 83 2.3 W 19 20 10 11 1003.9 - 0.0
07/03:30am 28.9 31.2 25.1 80 2.7 W 22 28 12 15 1003.7 - 0.0
07/03:00am 28.5 32.4 26.1 87 1.7 W 17 22 9 12 1003.9 1003.8 0.0
07/02:30am 28.6 33.7 27.2 92 1.0 W 15 19 8 10 1004.1 - 0.0
07/02:00am 28.6 32.7 27.2 92 1.0 W 20 22 11 12 1004.3 - 0.0
07/01:30am 28.7 33.2 26.9 90 1.3 W 17 19 9 10 1004.5 - 0.0
07/01:00am 28.6 31.9 26.6 89 1.4 W 22 24 12 13 1004.9 - 0.0
07/12:30am 28.8 33.0 27.0 90 1.3 W 19 20 10 11 1005.1 - 0.0
07/12:00am 28.8 33.1 27.2 91 1.2 W 19 20 10 11 1005.6 1005.5 0.0
 
Date/Time
EST
Temp
°C
App
Temp
°C
Dew
Point
Rel
Hum
%
Delta-T
°C
Wind Press
QNH
hPa
Press
MSL
hPa
Rain
since 9 am
mm
Dir
 
Spd
km/h
Gust
km/h
Spd
kts
Gust
kts
06/11:30pm 29.2 34.9 27.0 88 1.6 WSW 11 13 6 7 1005.9 - 0.0
06/11:00pm 29.3 34.8 26.7 86 1.9 WNW 11 11 6 6 1005.9 - 0.0
06/10:30pm 29.6 35.5 26.8 85 2.0 WNW 9 13 5 7 1006.2 - 0.0
06/10:00pm 29.8 35.5 27.0 85 2.0 WNW 11 15 6 8 1005.9 - 0.0
06/09:30pm 29.6 36.9 26.8 85 2.0 W 2 6 1 3 1005.3 - 0.0
06/09:00pm 29.8 35.3 26.8 84 2.2 WNW 11 13 6 7 1004.9 1004.8 0.0
06/08:30pm 29.9 34.6 26.7 83 2.3 N 15 17 8 9 1004.3 - 0.0
06/08:00pm 29.9 33.7 26.7 83 2.3 NNW 20 20 11 11 1004.1 - 0.0
06/07:30pm 29.6 32.3 26.2 82 2.4 N 24 28 13 15 1003.8 - 0.0
06/07:00pm 30.2 34.2 27.0 83 2.3 N 20 24 11 13 1003.4 - 0.0
06/06:30pm 30.6 33.1 27.6 84 2.2 N 30 35 16 19 1002.9 - 0.0
06/06:00pm 30.7 33.9 27.5 83 2.3 N 26 32 14 17 1002.5 1002.4 0.0
06/05:30pm 31.1 33.8 27.4 81 2.7 N 28 32 15 17 1002.2 - 0.0
06/05:00pm 31.9 34.6 27.4 77 3.3 N 28 30 15 16 1001.5 - 0.0
06/04:30pm 32.0 35.8 26.8 74 3.7 N 20 24 11 13 1001.4 - 0.0
06/04:00pm 32.2 36.1 26.0 70 4.4 N 17 20 9 11 1001.4 - 0.0
06/03:30pm 33.0 36.6 26.5 68 4.7 N 20 22 11 12 1001.5 - 0.0
06/03:00pm 33.6 37.7 26.4 66 5.2 N 17 19 9 10 1001.8 1001.7 0.0
06/02:30pm 34.5 38.1 26.1 61 6.0 N 19 20 10 11 1002.1 - 0.0
06/02:00pm 34.5 37.0 25.3 58 6.5 NNE 22 24 12 13 1002.4 - 0.0
06/01:30pm 35.6 38.5 26.0 57 6.9 NNE 22 24 12 13 1002.4 - 0.0
06/01:00pm 35.3 37.7 24.6 54 7.6 NNE 20 26 11 14 1002.6 - 0.0
06/12:30pm 37.0 40.8 26.4 54 7.7 NNE 19 20 10 11 1002.9 - 0.0
06/12:00pm 35.9 40.3 25.7 55 7.3 NNE 13 13 7 7 1003.2 1003.1 0.0
06/11:30am 35.1 39.7 25.9 59 6.6 N 13 15 7 8 1003.5 - 0.0
06/11:00am 34.2 39.3 25.0 58 6.5 N 7 9 4 5 1003.9 - 0.0
06/10:30am 32.3 38.1 25.1 65 5.1 W 4 6 2 3 1004.0 - 0.0
06/10:00am 30.8 36.2 25.4 73 3.8 SSW 7 9 4 5 1004.3 - 0.0
06/09:30am 30.2 34.9 25.0 73 3.7 WSW 9 11 5 6 1004.1 - 0.0
06/09:00am 29.6 34.2 25.3 77 3.0 W 11 15 6 8 1004.0 1003.9 0.2
06/08:30am 28.7 33.1 25.1 81 2.5 W 11 15 6 8 1003.9 - 0.2
06/08:00am 28.2 32.8 25.4 85 2.0 WSW 11 11 6 6 1003.6 - 0.2
06/07:30am 28.4 32.5 25.2 83 2.2 SW 13 13 7 7 1003.4 - 0.2
06/07:00am 28.4 33.1 25.0 82 2.4 WSW 9 11 5 6 1002.9 - 0.2
06/06:30am 28.2 32.1 24.8 82 2.4 W 13 15 7 8 1002.5 - 0.2
06/06:00am 28.3 32.7 25.1 83 2.2 W 11 13 6 7 1002.1 1002.0 0.2
06/05:30am 28.3 32.9 25.3 84 2.1 WSW 11 13 6 7 1002.0 - 0.2
06/05:00am 28.5 31.3 24.9 81 2.5 WSW 19 20 10 11 1001.8 - 0.2
06/04:30am 28.6 32.1 24.8 80 2.7 W 15 17 8 9 1001.4 - 0.2
06/04:00am 28.1 31.9 24.7 82 2.4 W 13 15 7 8 1001.3 - 0.2
06/03:30am 28.1 31.0 24.5 81 2.5 W 17 20 9 11 1001.2 - 0.2
06/03:00am 28.5 31.1 24.9 81 2.5 WNW 20 24 11 13 1001.3 1001.2 0.2
06/02:30am 28.3 30.9 24.9 82 2.4 NW 20 24 11 13 1001.3 - 0.2
06/02:00am 28.1 31.9 25.3 85 2.0 WNW 15 19 8 10 1001.6 - 0.2
06/01:30am 28.4 32.3 26.0 87 1.7 W 17 17 9 9 1001.6 - 0.2
06/01:00am 28.7 31.0 25.1 81 2.5 WNW 22 24 12 13 1002.1 - 0.2
06/12:30am 29.0 31.1 25.4 81 2.5 WNW 24 26 13 14 1002.6 - 0.2
06/12:00am 28.4 32.1 25.2 83 2.3 W 15 20 8 11 1003.1 1003.0 0.2
 
Date/Time
EST
Temp
°C
App
Temp
°C
Dew
Point
Rel
Hum
%
Delta-T
°C
Wind Press
QNH
hPa
Press
MSL
hPa
Rain
since 9 am
mm
Dir
 
Spd
km/h
Gust
km/h
Spd
kts
Gust
kts
05/11:30pm 28.9 33.6 26.7 88 1.6 SSW 15 17 8 9 1003.0 - 0.2
05/11:00pm 28.9 33.4 26.9 89 1.4 W 17 20 9 11 1003.9 - 0.2
05/10:30pm 28.7 33.8 25.5 83 2.3 WNW 9 11 5 6 1004.3 - 0.2
05/10:00pm 29.0 33.2 25.4 81 2.5 WSW 13 13 7 7 1004.4 - 0.2
05/09:30pm 29.0 32.9 25.4 81 2.5 WSW 15 19 8 10 1003.8 - 0.2
05/09:00pm 29.0 34.8 26.6 87 1.7 N 9 9 5 5 1003.3 1003.2 0.2
05/08:30pm 29.4 33.5 27.2 88 1.6 NNW 20 26 11 14 1003.5 - 0.2
05/08:00pm 29.6 31.5 27.6 89 1.4 N 33 39 18 21 1003.0 - 0.2
05/07:30pm 29.6 31.6 27.4 88 1.6 N 32 37 17 20 1002.4 - 0.2
05/07:00pm 29.9 31.9 27.5 87 1.7 NNW 32 39 17 21 1002.4 - 0.0
05/06:30pm 30.1 31.6 26.7 82 2.4 N 32 35 17 19 1001.3 - 0.0
05/06:00pm 30.2 31.3 26.4 80 2.7 N 33 39 18 21 1001.1 1001.0 0.0
05/05:30pm 30.8 32.4 26.9 80 2.8 N 32 35 17 19 1000.8 - 0.0
05/05:00pm 31.1 32.6 27.0 79 3.0 N 33 41 18 22 1000.6 - 0.0
05/04:30pm 30.9 32.4 27.0 80 2.8 N 33 37 18 20 1000.5 - 0.0
05/04:00pm 31.0 32.1 26.9 79 3.0 N 35 39 19 21 1000.5 - 0.0
05/03:30pm 31.4 33.6 26.7 76 3.4 N 28 32 15 17 1000.8 - 0.0
05/03:00pm 31.9 34.1 26.7 74 3.8 N 28 32 15 17 1001.1 1001.0 0.0
05/02:30pm 32.2 33.6 26.0 70 4.4 NNE 30 32 16 17 1001.3 - 0.0
05/02:00pm 33.2 35.5 26.2 66 5.0 NNE 26 30 14 16 1001.6 - 0.0
05/01:30pm 33.5 37.3 26.5 67 5.0 NNE 19 20 10 11 1002.0 - 0.0
05/01:00pm 33.6 38.0 25.6 63 5.7 NE 13 15 7 8 1002.2 - 0.0
05/12:30pm 33.6 38.5 25.8 63 5.6 ENE 11 13 6 7 1002.5 - 0.0
05/12:00pm 33.8 39.4 25.8 63 5.7 NE 7 9 4 5 1003.0 1002.9 0.0

Other Formats:

Comma delimited format used in spreadsheet applications
http://www.bom.gov.au/fwo/IDQ60801/IDQ60801.94285.axf

JavaScript Object Notation format (JSON) in row-major order
http://www.bom.gov.au/fwo/IDQ60801/IDQ60801.94285.json